createdAt,value
2022-09-23T00:00:26.878Z,89.34
2022-09-23T00:02:56.716Z,89.34
2022-09-23T00:05:26.593Z,89.32
2022-09-23T00:07:56.332Z,89.38
2022-09-23T00:10:31.542Z,89.38
2022-09-23T00:13:02.038Z,89.52
2022-09-23T00:15:31.993Z,89.55
2022-09-23T00:18:01.980Z,89.58
2022-09-23T00:20:32.244Z,89.64
2022-09-23T00:23:02.022Z,89.67
2022-09-23T00:25:34.429Z,89.66
2022-09-23T00:28:04.687Z,89.78
2022-09-23T00:30:34.482Z,89.81
2022-09-23T00:33:04.242Z,89.69
2022-09-23T00:35:33.950Z,89.71
2022-09-23T00:38:03.696Z,89.95
2022-09-23T00:40:36.481Z,89.88
2022-09-23T00:43:06.373Z,89.90
2022-09-23T00:45:36.684Z,89.92
2022-09-23T00:48:06.938Z,89.86
2022-09-23T00:50:40.281Z,90.05
2022-09-23T00:53:13.481Z,90.11
2022-09-23T00:55:51.662Z,90.09
2022-09-23T00:58:25.169Z,90.12
2022-09-23T01:00:55.070Z,90.22
2022-09-23T01:03:24.921Z,90.19
2022-09-23T01:05:55.476Z,90.08
2022-09-23T01:08:26.938Z,90.23
2022-09-23T01:11:08.628Z,90.31
2022-09-23T01:13:47.048Z,90.36
2022-09-23T01:16:21.870Z,90.54
2022-09-23T01:19:00.326Z,90.50
2022-09-23T01:21:47.998Z,90.57
2022-09-23T01:24:29.727Z,90.65
2022-09-23T01:27:13.958Z,90.65
2022-09-23T01:30:10.740Z,90.69
2022-09-23T01:32:59.237Z,90.66
2022-09-23T01:35:34.456Z,90.80
2022-09-23T01:38:17.553Z,90.77
2022-09-23T01:40:52.886Z,90.87
2022-09-23T01:43:27.341Z,90.92
2022-09-23T01:46:02.008Z,91.08
2022-09-23T01:48:39.130Z,91.07
2022-09-23T01:51:13.368Z,91.11
2022-09-23T01:53:49.667Z,91.18
2022-09-23T01:56:25.337Z,91.17
2022-09-23T01:59:03.519Z,91.25
2022-09-23T02:01:41.508Z,91.26
2022-09-23T02:04:18.659Z,91.29
2022-09-23T02:06:55.257Z,91.42
2022-09-23T02:09:30.494Z,91.51
2022-09-23T02:12:06.908Z,91.59
2022-09-23T02:14:43.694Z,91.58
2022-09-23T02:17:17.240Z,91.54
2022-09-23T02:19:52.437Z,91.61
2022-09-23T02:22:26.969Z,91.66
2022-09-23T02:24:59.326Z,91.75
2022-09-23T02:27:33.542Z,91.74
2022-09-23T02:30:11.392Z,91.82
2022-09-23T02:32:51.528Z,91.68
2022-09-23T02:35:33.234Z,91.77
2022-09-23T02:38:17.471Z,91.74
2022-09-23T02:40:55.802Z,91.73
2022-09-23T02:43:33.998Z,91.67
2022-09-23T02:46:04.164Z,91.79
2022-09-23T02:48:38.301Z,91.55
2022-09-23T02:51:11.474Z,91.66
2022-09-23T02:53:41.813Z,91.56
2022-09-23T02:56:19.725Z,91.53
2022-09-23T02:58:50.187Z,91.50
2022-09-23T03:01:33.918Z,91.51
2022-09-23T03:04:13.314Z,91.47
2022-09-23T03:06:55.096Z,91.60
2022-09-23T03:09:32.949Z,91.52
2022-09-23T03:12:15.709Z,91.49
2022-09-23T03:14:55.853Z,91.46
2022-09-23T03:17:34.656Z,91.44
2022-09-23T03:20:10.981Z,91.42
2022-09-23T03:22:47.776Z,91.54
2022-09-23T03:25:21.703Z,91.50
2022-09-23T03:27:51.398Z,91.62
2022-09-23T03:30:21.846Z,91.48
2022-09-23T03:32:52.897Z,91.72
2022-09-23T03:35:26.940Z,91.76
2022-09-23T03:38:07.290Z,91.64
2022-09-23T03:40:43.614Z,91.63
2022-09-23T03:43:14.570Z,91.66
2022-09-23T03:45:45.117Z,91.70
2022-09-23T03:48:15.194Z,91.73
2022-09-23T03:50:44.946Z,91.78
2022-09-23T03:53:19.065Z,91.75
2022-09-23T03:55:49.101Z,91.74
2022-09-23T03:58:18.887Z,91.77
2022-09-23T04:00:49.898Z,91.78
2022-09-23T04:03:19.659Z,91.81
2022-09-23T04:05:50.120Z,91.84
2022-09-23T04:08:22.445Z,91.83
2022-09-23T04:10:54.878Z,91.85
2022-09-23T04:13:24.766Z,91.79
2022-09-23T04:15:54.581Z,91.79
2022-09-23T04:18:24.645Z,91.86
2022-09-23T04:20:54.349Z,91.86
2022-09-23T04:23:26.894Z,91.86
2022-09-23T04:25:57.182Z,91.85
2022-09-23T04:28:26.961Z,91.84
2022-09-23T04:30:57.965Z,91.97
2022-09-23T04:33:28.196Z,91.97
2022-09-23T04:35:59.140Z,91.96
2022-09-23T04:38:31.464Z,92.05
2022-09-23T04:41:01.216Z,91.96
2022-09-23T04:43:31.274Z,92.06
2022-09-23T04:46:02.475Z,92.08
2022-09-23T04:48:32.809Z,92.03
2022-09-23T04:51:06.441Z,92.14
2022-09-23T04:53:40.309Z,92.13
2022-09-23T04:56:12.424Z,92.15
2022-09-23T04:58:43.562Z,92.26
2022-09-23T05:01:15.742Z,92.22
2022-09-23T05:03:46.814Z,92.25
2022-09-23T05:06:17.580Z,92.35
2022-09-23T05:08:54.023Z,92.37
2022-09-23T05:11:24.736Z,92.39
2022-09-23T05:13:56.256Z,92.38
2022-09-23T05:16:27.342Z,92.48
2022-09-23T05:18:57.713Z,92.60
2022-09-23T05:21:29.288Z,92.71
2022-09-23T05:24:01.912Z,92.67
2022-09-23T05:26:33.344Z,92.71
2022-09-23T05:29:03.237Z,92.71
2022-09-23T05:31:33.667Z,92.78
2022-09-23T05:34:07.224Z,92.76
2022-09-23T05:36:39.349Z,92.95
2022-09-23T05:39:12.136Z,93.00
2022-09-23T05:41:43.070Z,93.08
2022-09-23T05:44:13.255Z,93.25
2022-09-23T05:46:43.041Z,93.21
2022-09-23T05:49:12.921Z,93.31
2022-09-23T05:51:42.773Z,93.33
2022-09-23T05:54:15.217Z,93.34
2022-09-23T05:56:45.017Z,93.44
2022-09-23T05:59:14.729Z,93.55
2022-09-23T06:01:44.685Z,93.71
2022-09-23T06:04:16.101Z,93.81
2022-09-23T06:06:46.247Z,93.92
2022-09-23T06:09:18.736Z,94.21
2022-09-23T06:11:48.507Z,94.21
2022-09-23T06:14:18.913Z,94.22
2022-09-23T06:16:48.617Z,94.40
2022-09-23T06:19:18.360Z,94.58
2022-09-23T06:21:48.102Z,94.69
2022-09-23T06:24:23.807Z,94.84
2022-09-23T06:26:55.922Z,94.95
2022-09-23T06:29:25.844Z,94.98
2022-09-23T06:31:55.933Z,95.11
2022-09-23T06:34:25.780Z,95.16
2022-09-23T06:36:55.823Z,95.27
2022-09-23T06:39:28.128Z,95.42
2022-09-23T06:41:57.873Z,95.40
2022-09-23T06:44:28.514Z,95.56
2022-09-23T06:46:58.308Z,95.51
2022-09-23T06:49:34.103Z,95.77
2022-09-23T06:52:05.362Z,96.00
2022-09-23T06:54:38.266Z,96.01
2022-09-23T06:57:08.167Z,96.08
2022-09-23T06:59:37.852Z,96.27
2022-09-23T07:02:07.805Z,96.36
2022-09-23T07:04:37.632Z,96.46
2022-09-23T07:07:11.617Z,96.61
2022-09-23T07:09:43.982Z,96.66
2022-09-23T07:12:14.287Z,96.82
2022-09-23T07:14:44.213Z,96.91
2022-09-23T07:17:13.908Z,97.05
2022-09-23T07:19:44.097Z,97.10
2022-09-23T07:22:13.949Z,97.26
2022-09-23T07:24:46.705Z,97.36
2022-09-23T07:27:20.127Z,97.32
2022-09-23T07:29:50.527Z,97.57
2022-09-23T07:32:20.606Z,97.77
2022-09-23T07:34:51.078Z,97.77
2022-09-23T07:37:21.384Z,97.97
2022-09-23T07:39:54.069Z,98.04
2022-09-23T07:42:23.816Z,98.15
2022-09-23T07:44:55.810Z,98.40
2022-09-23T07:47:25.609Z,98.49
2022-09-23T07:49:55.677Z,98.52
2022-09-23T07:52:25.413Z,98.60
2022-09-23T07:54:58.146Z,98.50
2022-09-23T07:57:27.878Z,98.49
2022-09-23T07:59:57.596Z,98.33
2022-09-23T08:02:27.415Z,98.13
2022-09-23T08:04:57.793Z,98.23
2022-09-23T08:07:27.591Z,98.16
2022-09-23T08:09:59.930Z,98.10
2022-09-23T08:12:31.245Z,98.08
2022-09-23T08:15:01.321Z,98.11
2022-09-23T08:17:31.036Z,98.12
2022-09-23T08:20:00.746Z,97.97
2022-09-23T08:22:30.473Z,97.96
2022-09-23T08:25:02.831Z,98.01
2022-09-23T08:27:33.127Z,97.97
2022-09-23T08:30:02.852Z,98.08
2022-09-23T08:32:33.066Z,97.94
2022-09-23T08:35:02.768Z,97.99
2022-09-23T08:37:32.497Z,97.82
2022-09-23T08:40:05.411Z,97.77
2022-09-23T08:42:38.817Z,97.71
2022-09-23T08:45:16.124Z,97.52
2022-09-23T08:47:50.177Z,97.27
2022-09-23T08:50:23.157Z,97.27
2022-09-23T08:52:57.255Z,97.31
2022-09-23T08:55:41.668Z,97.16
2022-09-23T08:58:28.589Z,96.94
2022-09-23T09:01:07.070Z,97.02
2022-09-23T09:03:42.937Z,96.84
2022-09-23T09:06:19.492Z,96.74
2022-09-23T09:08:57.341Z,96.69
2022-09-23T09:11:36.290Z,96.84
2022-09-23T09:14:18.497Z,96.69
2022-09-23T09:17:01.243Z,96.56
2022-09-23T09:19:55.451Z,96.53
2022-09-23T09:22:40.311Z,96.48
2022-09-23T09:25:21.004Z,96.23
2022-09-23T09:27:54.921Z,96.17
2022-09-23T09:30:25.883Z,95.82
2022-09-23T09:33:00.977Z,95.57
2022-09-23T09:35:39.653Z,95.34
2022-09-23T09:38:09.774Z,95.22
2022-09-23T09:40:47.935Z,94.84
2022-09-23T09:43:23.812Z,94.73
2022-09-23T09:46:06.412Z,94.55
2022-09-23T09:48:41.655Z,94.33
2022-09-23T09:51:22.056Z,94.16
2022-09-23T09:53:53.055Z,93.84
2022-09-23T09:56:26.999Z,93.83
2022-09-23T09:59:04.123Z,93.71
2022-09-23T10:01:35.617Z,93.43
2022-09-23T10:04:08.449Z,93.16
2022-09-23T10:06:39.241Z,93.02
2022-09-23T10:09:19.440Z,93.06
2022-09-23T10:12:15.046Z,92.91
2022-09-23T10:14:50.705Z,92.54
2022-09-23T10:17:24.582Z,92.58
2022-09-23T10:20:01.449Z,92.48
2022-09-23T10:22:39.886Z,92.47
2022-09-23T10:25:13.492Z,92.29
2022-09-23T10:27:43.557Z,92.24
2022-09-23T10:30:24.522Z,92.21
2022-09-23T10:32:57.064Z,92.02
2022-09-23T10:35:28.376Z,91.91
2022-09-23T10:37:59.535Z,91.96
2022-09-23T10:40:45.939Z,91.77
2022-09-23T10:43:39.044Z,91.72
2022-09-23T10:46:31.109Z,91.66
2022-09-23T10:49:25.171Z,91.51
2022-09-23T10:52:10.497Z,91.27
2022-09-23T10:54:56.490Z,91.34
2022-09-23T10:57:43.401Z,91.29
2022-09-23T11:00:23.473Z,91.19
2022-09-23T11:03:13.054Z,91.25
2022-09-23T11:05:49.259Z,91.16
2022-09-23T11:08:40.438Z,91.31
2022-09-23T11:11:20.594Z,91.22
2022-09-23T11:14:18.695Z,91.13
2022-09-23T11:17:08.460Z,91.28
2022-09-23T11:20:18.022Z,91.14
2022-09-23T11:23:00.745Z,91.07
2022-09-23T11:25:46.801Z,91.15
2022-09-23T11:28:45.571Z,90.96
2022-09-23T11:31:25.933Z,90.91
2022-09-23T11:34:16.157Z,91.01
2022-09-23T11:36:55.033Z,90.86
2022-09-23T11:39:30.079Z,90.95
2022-09-23T11:42:03.077Z,90.84
2022-09-23T11:44:37.108Z,90.80
2022-09-23T11:47:13.925Z,90.93
2022-09-23T11:49:50.581Z,90.80
2022-09-23T11:52:29.204Z,90.89
2022-09-23T11:55:08.219Z,90.88
2022-09-23T11:57:49.698Z,91.00
2022-09-23T12:00:22.347Z,90.98
2022-09-23T12:03:06.128Z,91.16
2022-09-23T12:05:40.826Z,91.15
2022-09-23T12:08:20.514Z,91.27
2022-09-23T12:10:57.672Z,91.20
2022-09-23T12:13:34.893Z,91.16
2022-09-23T12:16:36.719Z,91.24
2022-09-23T12:19:21.549Z,91.17
2022-09-23T12:22:07.077Z,91.28
2022-09-23T12:24:49.404Z,91.23
2022-09-23T12:27:28.053Z,91.42
2022-09-23T12:30:01.104Z,91.37
2022-09-23T12:32:31.524Z,91.34
2022-09-23T12:35:02.886Z,91.22
2022-09-23T12:37:37.400Z,91.35
2022-09-23T12:40:21.680Z,91.35
2022-09-23T12:42:52.777Z,91.48
2022-09-23T12:45:41.207Z,91.47
2022-09-23T12:48:41.069Z,91.72
2022-09-23T12:51:18.937Z,91.67
2022-09-23T12:54:24.814Z,92.13
2022-09-23T12:57:05.300Z,92.02
2022-09-23T12:59:50.862Z,92.20
2022-09-23T13:02:33.813Z,92.55
2022-09-23T13:05:35.629Z,92.55
2022-09-23T13:08:10.390Z,92.61
2022-09-23T13:10:48.448Z,92.70
2022-09-23T13:13:26.191Z,92.84
2022-09-23T13:15:56.661Z,92.94
2022-09-23T13:18:58.930Z,93.04
2022-09-23T13:22:03.306Z,93.12
2022-09-23T13:24:47.770Z,93.45
2022-09-23T13:27:27.029Z,93.42
2022-09-23T13:30:03.479Z,93.29
2022-09-23T13:32:35.902Z,93.56
2022-09-23T13:35:07.971Z,93.60
2022-09-23T13:37:46.323Z,93.64
2022-09-23T13:40:26.789Z,93.79
2022-09-23T13:43:00.991Z,93.97
2022-09-23T13:45:34.594Z,93.95
2022-09-23T13:48:07.679Z,94.04
2022-09-23T13:50:41.891Z,93.86
2022-09-23T13:53:14.529Z,93.92
2022-09-23T13:55:46.923Z,93.97
2022-09-23T13:58:24.000Z,94.08
2022-09-23T14:00:56.475Z,94.22
2022-09-23T14:03:36.630Z,94.24
2022-09-23T14:06:11.669Z,94.34
2022-09-23T14:08:44.327Z,94.53
2022-09-23T14:11:18.288Z,94.48
2022-09-23T14:13:51.026Z,94.54
2022-09-23T14:16:25.229Z,94.52
2022-09-23T14:18:59.522Z,94.89
2022-09-23T14:21:36.108Z,94.88
2022-09-23T14:24:16.362Z,95.04
2022-09-23T14:26:49.323Z,95.19
2022-09-23T14:29:21.781Z,95.45
2022-09-23T14:32:00.887Z,95.51
2022-09-23T14:34:48.323Z,95.68
2022-09-23T14:37:43.726Z,95.87
2022-09-23T14:40:17.894Z,95.84
2022-09-23T14:42:51.555Z,96.18
2022-09-23T14:45:25.094Z,96.33
2022-09-23T14:48:01.906Z,96.65
2022-09-23T14:50:40.718Z,96.74
2022-09-23T14:53:36.524Z,96.88
2022-09-23T14:56:18.620Z,97.19
2022-09-23T14:58:52.877Z,97.25
2022-09-23T15:01:38.092Z,97.48
2022-09-23T15:04:19.931Z,97.79
2022-09-23T15:06:55.569Z,98.02
2022-09-23T15:09:28.510Z,98.27
2022-09-23T15:12:04.051Z,98.28
2022-09-23T15:14:39.722Z,98.71
2022-09-23T15:17:19.702Z,98.99
2022-09-23T15:19:56.766Z,99.21
2022-09-23T15:22:27.855Z,99.48
2022-09-23T15:25:10.871Z,99.71
2022-09-23T15:27:41.017Z,100.00
2022-09-23T15:30:18.187Z,100.00
2022-09-23T15:32:49.321Z,100.00
2022-09-23T15:35:25.705Z,100.00
2022-09-23T15:37:59.001Z,100.00
2022-09-23T15:40:30.794Z,100.00
2022-09-23T15:43:02.714Z,100.00
2022-09-23T15:45:36.063Z,100.00
2022-09-23T15:48:10.294Z,100.00
2022-09-23T15:50:45.612Z,100.00
2022-09-23T15:53:18.266Z,100.00
2022-09-23T15:55:48.135Z,100.00
2022-09-23T15:58:17.870Z,100.00
2022-09-23T16:00:51.139Z,100.00
2022-09-23T16:03:25.902Z,100.00
2022-09-23T16:06:01.344Z,100.00
2022-09-23T16:08:33.150Z,100.00
2022-09-23T16:11:03.287Z,100.00
2022-09-23T16:13:33.033Z,100.00
2022-09-23T16:16:02.789Z,100.00
2022-09-23T16:18:32.702Z,100.00
2022-09-23T16:21:07.714Z,100.00
2022-09-23T16:23:43.646Z,100.00
2022-09-23T16:26:19.638Z,100.00
2022-09-23T16:28:51.016Z,100.00
2022-09-23T16:31:21.034Z,100.00
2022-09-23T16:33:51.553Z,100.00
2022-09-23T16:36:27.111Z,100.00
2022-09-23T16:38:58.233Z,100.00
2022-09-23T16:41:29.743Z,100.00
2022-09-23T16:44:00.881Z,100.00
2022-09-23T16:46:31.537Z,100.00
2022-09-23T16:49:02.680Z,100.00
2022-09-23T16:51:38.377Z,100.00
2022-09-23T16:54:11.973Z,100.00
2022-09-23T16:56:45.522Z,100.00
2022-09-23T16:59:16.216Z,100.00
2022-09-23T17:01:58.770Z,100.00
2022-09-23T17:04:28.549Z,100.00
2022-09-23T17:07:01.238Z,100.00
2022-09-23T17:09:32.041Z,100.00
2022-09-23T17:12:12.053Z,100.00
2022-09-23T17:14:41.745Z,100.00
2022-09-23T17:17:11.430Z,100.00
2022-09-23T17:19:41.535Z,100.00
2022-09-23T17:22:14.454Z,100.00
2022-09-23T17:24:44.221Z,100.00
2022-09-23T17:27:15.817Z,100.00
2022-09-23T17:29:45.790Z,100.00
2022-09-23T17:32:15.557Z,100.00
2022-09-23T17:34:45.696Z,100.00
2022-09-23T17:37:18.030Z,100.00
2022-09-23T17:39:47.725Z,100.00
2022-09-23T17:42:18.357Z,100.00
2022-09-23T17:44:48.268Z,100.00
2022-09-23T17:47:18.018Z,100.00
2022-09-23T17:49:50.042Z,100.00
2022-09-23T17:52:22.391Z,100.00
2022-09-23T17:54:55.182Z,100.00
2022-09-23T17:57:24.904Z,100.00
2022-09-23T17:59:56.199Z,100.00
2022-09-23T18:02:25.943Z,100.00
2022-09-23T18:04:55.676Z,100.00
2022-09-23T18:07:27.969Z,100.00
2022-09-23T18:09:57.648Z,100.00
2022-09-23T18:12:27.481Z,100.00
2022-09-23T18:14:57.165Z,100.00
2022-09-23T18:17:26.941Z,100.00
2022-09-23T18:19:56.636Z,100.00
2022-09-23T18:22:28.977Z,100.00
2022-09-23T18:24:59.030Z,100.00
2022-09-23T18:27:28.745Z,100.00
2022-09-23T18:29:58.453Z,100.00
2022-09-23T18:32:28.134Z,100.00
2022-09-23T18:34:57.968Z,100.00
2022-09-23T18:37:30.266Z,100.00
2022-09-23T18:39:59.960Z,100.00
2022-09-23T18:42:29.832Z,100.00
2022-09-23T18:44:59.648Z,100.00
2022-09-23T18:47:43.519Z,100.00
2022-09-23T18:50:27.256Z,100.00
2022-09-23T18:53:00.494Z,100.00
2022-09-23T18:55:30.252Z,100.00
2022-09-23T18:57:59.990Z,100.00
2022-09-23T19:00:30.122Z,100.00
2022-09-23T19:02:59.894Z,100.00
2022-09-23T19:05:29.572Z,100.00
2022-09-23T19:08:01.893Z,100.00
2022-09-23T19:10:31.593Z,100.00
2022-09-23T19:13:01.289Z,100.00
2022-09-23T19:15:30.991Z,100.00
2022-09-23T19:18:00.692Z,100.00
2022-09-23T19:20:30.379Z,100.00
2022-09-23T19:23:02.666Z,100.00
2022-09-23T19:25:32.373Z,100.00
2022-09-23T19:28:05.558Z,100.00
2022-09-23T19:30:35.714Z,100.00
2022-09-23T19:33:05.810Z,100.00
2022-09-23T19:35:36.193Z,100.00
2022-09-23T19:38:08.506Z,100.00
2022-09-23T19:40:39.382Z,100.00
2022-09-23T19:43:09.116Z,100.00
2022-09-23T19:45:38.878Z,100.00
2022-09-23T19:48:09.201Z,100.00
2022-09-23T19:50:41.666Z,100.00
2022-09-23T19:53:13.981Z,100.00
2022-09-23T19:55:44.422Z,100.00
2022-09-23T19:58:14.407Z,100.00
2022-09-23T20:00:44.449Z,100.00
2022-09-23T20:03:14.178Z,100.00
2022-09-23T20:05:43.853Z,100.00
2022-09-23T20:08:16.178Z,100.00
2022-09-23T20:10:46.909Z,100.00
2022-09-23T20:13:17.672Z,100.00
2022-09-23T20:15:48.409Z,100.00
2022-09-23T20:18:18.385Z,100.00
2022-09-23T20:20:48.077Z,100.00
2022-09-23T20:23:20.375Z,100.00
2022-09-23T20:26:10.761Z,100.00
2022-09-23T20:28:40.473Z,100.00
2022-09-23T20:31:10.270Z,100.00
2022-09-23T20:33:41.724Z,100.00
2022-09-23T20:36:13.423Z,100.00
2022-09-23T20:38:45.898Z,100.00
2022-09-23T20:41:18.246Z,100.00
2022-09-23T20:43:48.362Z,100.00
2022-09-23T20:46:18.118Z,100.00
2022-09-23T20:48:49.514Z,100.00
2022-09-23T20:51:19.573Z,100.00
2022-09-23T20:53:55.010Z,100.00
2022-09-23T20:56:25.494Z,100.00
2022-09-23T20:58:55.343Z,100.00
2022-09-23T21:01:25.075Z,100.00
2022-09-23T21:03:56.136Z,100.00
2022-09-23T21:06:27.050Z,100.00
2022-09-23T21:08:59.628Z,100.00
2022-09-23T21:11:29.389Z,100.00
2022-09-23T21:14:01.262Z,100.00
2022-09-23T21:16:31.632Z,100.00
2022-09-23T21:19:03.030Z,100.00
2022-09-23T21:21:32.915Z,100.00
2022-09-23T21:24:32.533Z,100.00
2022-09-23T21:26:55.237Z,100.00
2022-09-23T21:29:24.933Z,100.00
2022-09-23T21:31:54.698Z,100.00
2022-09-23T21:34:26.196Z,100.00
2022-09-23T21:36:56.813Z,100.00
2022-09-23T21:39:29.146Z,100.00
2022-09-23T21:41:58.844Z,100.00
2022-09-23T21:44:28.699Z,100.00
2022-09-23T21:46:59.482Z,100.00
2022-09-23T21:49:29.207Z,100.00
2022-09-23T21:52:00.858Z,100.00
2022-09-23T21:54:33.124Z,100.00
2022-09-23T21:57:02.871Z,100.00
2022-09-23T21:59:32.641Z,100.00
2022-09-23T22:02:03.033Z,100.00
2022-09-23T22:04:33.817Z,100.00
2022-09-23T22:07:03.590Z,100.00
2022-09-23T22:09:35.956Z,100.00
2022-09-23T22:12:09.972Z,100.00
2022-09-23T22:14:40.188Z,100.00
2022-09-23T22:17:12.366Z,100.00
2022-09-23T22:19:46.649Z,100.00
2022-09-23T22:22:18.897Z,100.00
2022-09-23T22:24:52.076Z,100.00
2022-09-23T22:27:23.795Z,100.00
2022-09-23T22:30:05.956Z,100.00
2022-09-23T22:32:54.257Z,100.00
2022-09-23T22:35:25.123Z,100.00
2022-09-23T22:37:54.796Z,100.00
2022-09-23T22:40:27.205Z,100.00
2022-09-23T22:42:57.071Z,100.00
2022-09-23T22:45:27.101Z,100.00
2022-09-23T22:47:56.785Z,100.00
2022-09-23T22:50:26.770Z,100.00
2022-09-23T22:52:56.477Z,100.00
2022-09-23T22:55:28.921Z,100.00
2022-09-23T22:58:10.414Z,100.00
2022-09-23T23:00:48.282Z,100.00
2022-09-23T23:03:20.556Z,100.00
2022-09-23T23:05:50.385Z,100.00
2022-09-23T23:08:20.524Z,100.00
2022-09-23T23:10:52.922Z,100.00
2022-09-23T23:13:22.627Z,100.00
2022-09-23T23:15:52.337Z,100.00
2022-09-23T23:18:22.038Z,100.00
2022-09-23T23:20:51.722Z,100.00
2022-09-23T23:23:21.427Z,100.00
2022-09-23T23:25:53.730Z,100.00
2022-09-23T23:28:23.446Z,100.00
2022-09-23T23:30:53.151Z,100.00
2022-09-23T23:33:22.887Z,100.00
2022-09-23T23:35:53.312Z,100.00
2022-09-23T23:38:23.094Z,100.00
2022-09-23T23:40:55.641Z,100.00
2022-09-23T23:43:25.622Z,100.00
2022-09-23T23:45:56.461Z,100.00
2022-09-23T23:48:26.504Z,100.00
2022-09-23T23:50:56.942Z,100.00
2022-09-23T23:53:27.527Z,100.00
2022-09-23T23:56:00.211Z,100.00
2022-09-23T23:58:30.759Z,100.00
